createdAt,value
2022-08-20T00:01:12.257Z,69.50
2022-08-20T00:03:44.812Z,69.79
2022-08-20T00:06:23.741Z,69.77
2022-08-20T00:08:51.629Z,69.49
2022-08-20T00:11:24.414Z,69.56
2022-08-20T00:13:58.107Z,70.11
2022-08-20T00:16:26.925Z,69.97
2022-08-20T00:18:54.273Z,69.99
2022-08-20T00:21:23.188Z,70.30
2022-08-20T00:23:52.722Z,70.57
2022-08-20T00:26:20.683Z,70.60
2022-08-20T00:28:48.142Z,70.31
2022-08-20T00:31:19.707Z,70.79
2022-08-20T00:33:47.929Z,70.86
2022-08-20T00:36:17.632Z,71.03
2022-08-20T00:38:46.597Z,71.10
2022-08-20T00:41:25.942Z,71.08
2022-08-20T00:44:21.905Z,71.11
2022-08-20T00:46:51.053Z,70.94
2022-08-20T00:49:24.755Z,71.40
2022-08-20T00:52:12.954Z,71.81
2022-08-20T00:54:51.744Z,71.71
2022-08-20T00:57:25.000Z,71.81
2022-08-20T00:59:53.322Z,72.04
2022-08-20T01:02:25.438Z,72.16
2022-08-20T01:04:55.053Z,72.21
2022-08-20T01:07:35.630Z,72.19
2022-08-20T01:10:19.256Z,72.28
2022-08-20T01:12:48.225Z,72.40
2022-08-20T01:15:30.747Z,72.31
2022-08-20T01:18:01.849Z,72.36
2022-08-20T01:20:37.348Z,72.28
2022-08-20T01:23:34.741Z,72.39
2022-08-20T01:26:21.308Z,72.62
2022-08-20T01:28:58.597Z,72.78
2022-08-20T01:31:33.662Z,72.91
2022-08-20T01:34:04.295Z,73.00
2022-08-20T01:36:45.549Z,73.18
2022-08-20T01:39:18.924Z,73.13
2022-08-20T01:41:51.865Z,73.19
2022-08-20T01:44:20.930Z,73.40
2022-08-20T01:46:52.573Z,73.32
2022-08-20T01:49:34.863Z,73.49
2022-08-20T01:52:08.869Z,73.71
2022-08-20T01:54:36.042Z,73.77
2022-08-20T01:57:17.853Z,74.13
2022-08-20T02:00:19.707Z,74.12
2022-08-20T02:03:08.655Z,74.20
2022-08-20T02:05:36.190Z,74.37
2022-08-20T02:08:03.977Z,74.57
2022-08-20T02:10:32.350Z,74.66
2022-08-20T02:13:00.663Z,74.73
2022-08-20T02:15:34.526Z,74.56
2022-08-20T02:18:13.126Z,74.84
2022-08-20T02:20:41.765Z,74.91
2022-08-20T02:23:12.177Z,75.01
2022-08-20T02:25:43.548Z,75.16
2022-08-20T02:28:14.677Z,75.45
2022-08-20T02:30:48.495Z,75.88
2022-08-20T02:33:19.477Z,75.84
2022-08-20T02:35:51.041Z,75.97
2022-08-20T02:38:18.381Z,76.19
2022-08-20T02:40:46.617Z,76.34
2022-08-20T02:43:14.419Z,76.33
2022-08-20T02:45:43.699Z,76.06
2022-08-20T02:48:21.244Z,76.08
2022-08-20T02:51:01.329Z,76.45
2022-08-20T02:53:32.259Z,76.61
2022-08-20T02:56:00.305Z,76.42
2022-08-20T02:58:27.669Z,76.31
2022-08-20T03:00:56.650Z,76.25
2022-08-20T03:03:24.303Z,76.53
2022-08-20T03:05:56.907Z,76.77
2022-08-20T03:08:25.362Z,77.11
2022-08-20T03:10:53.500Z,77.09
2022-08-20T03:13:22.153Z,76.98
2022-08-20T03:15:58.851Z,77.02
2022-08-20T03:18:32.475Z,77.13
2022-08-20T03:21:00.091Z,76.85
2022-08-20T03:23:27.140Z,77.51
2022-08-20T03:25:54.042Z,77.65
2022-08-20T03:28:20.966Z,77.60
2022-08-20T03:30:47.899Z,77.44
2022-08-20T03:33:16.159Z,77.56
2022-08-20T03:35:43.415Z,77.66
2022-08-20T03:38:13.143Z,77.40
2022-08-20T03:40:41.118Z,77.41
2022-08-20T03:43:10.337Z,77.93
2022-08-20T03:45:41.869Z,77.78
2022-08-20T03:48:12.561Z,77.47
2022-08-20T03:50:41.769Z,77.39
2022-08-20T03:53:12.288Z,77.29
2022-08-20T03:55:46.295Z,77.56
2022-08-20T03:58:34.611Z,77.92
2022-08-20T04:01:02.711Z,78.28
2022-08-20T04:03:29.700Z,78.43
2022-08-20T04:05:56.477Z,78.38
2022-08-20T04:08:27.938Z,78.28
2022-08-20T04:10:59.694Z,78.37
2022-08-20T04:13:29.800Z,78.38
2022-08-20T04:16:00.868Z,78.82
2022-08-20T04:18:28.058Z,78.63
2022-08-20T04:20:55.389Z,78.47
2022-08-20T04:23:23.113Z,78.79
2022-08-20T04:25:50.151Z,79.25
2022-08-20T04:28:27.097Z,79.44
2022-08-20T04:30:57.317Z,79.33
2022-08-20T04:33:35.437Z,79.64
2022-08-20T04:36:05.586Z,79.77
2022-08-20T04:38:49.759Z,79.90
2022-08-20T04:41:23.648Z,79.49
2022-08-20T04:43:54.075Z,79.44
2022-08-20T04:46:25.408Z,79.70
2022-08-20T04:48:52.942Z,80.06
2022-08-20T04:51:22.913Z,79.86
2022-08-20T04:53:53.633Z,79.76
2022-08-20T04:56:24.406Z,80.21
2022-08-20T04:58:54.551Z,79.98
2022-08-20T05:01:23.713Z,80.07
2022-08-20T05:03:53.691Z,80.12
2022-08-20T05:06:24.639Z,80.28
2022-08-20T05:08:53.320Z,80.37
2022-08-20T05:11:35.979Z,80.75
2022-08-20T05:14:08.514Z,80.66
2022-08-20T05:16:38.431Z,80.73
2022-08-20T05:19:09.090Z,81.09
2022-08-20T05:21:36.406Z,81.26
2022-08-20T05:24:03.774Z,81.98
2022-08-20T05:26:30.717Z,82.49
2022-08-20T05:28:59.300Z,82.91
2022-08-20T05:31:32.204Z,82.80
2022-08-20T05:34:12.445Z,81.91
2022-08-20T05:36:43.457Z,81.68
2022-08-20T05:39:11.019Z,81.42
2022-08-20T05:41:39.830Z,81.32
2022-08-20T05:44:10.763Z,81.28
2022-08-20T05:46:40.751Z,81.21
2022-08-20T05:49:10.953Z,80.85
2022-08-20T05:51:37.961Z,80.30
2022-08-20T05:54:06.313Z,80.34
2022-08-20T05:56:34.125Z,80.41
2022-08-20T05:59:04.125Z,80.43
2022-08-20T06:01:34.250Z,80.43
2022-08-20T06:04:20.115Z,79.56
2022-08-20T06:06:47.798Z,79.24
2022-08-20T06:09:30.653Z,78.73
2022-08-20T06:12:01.653Z,78.34
2022-08-20T06:14:28.941Z,78.72
2022-08-20T06:17:02.408Z,79.18
2022-08-20T06:19:32.282Z,79.77
2022-08-20T06:22:00.590Z,79.56
2022-08-20T06:24:27.845Z,79.91
2022-08-20T06:27:01.324Z,80.07
2022-08-20T06:29:29.910Z,79.59
2022-08-20T06:31:57.168Z,79.86
2022-08-20T06:34:28.053Z,79.49
2022-08-20T06:36:57.238Z,79.18
2022-08-20T06:39:28.553Z,79.05
2022-08-20T06:41:58.512Z,79.00
2022-08-20T06:44:25.927Z,78.34
2022-08-20T06:46:52.933Z,78.22
2022-08-20T06:49:19.910Z,78.22
2022-08-20T06:51:46.686Z,77.60
2022-08-20T06:54:18.818Z,77.00
2022-08-20T06:56:45.841Z,76.60
2022-08-20T06:59:12.885Z,76.60
2022-08-20T07:01:39.902Z,75.60
2022-08-20T07:04:08.327Z,75.22
2022-08-20T07:06:35.159Z,75.03
2022-08-20T07:09:02.078Z,74.66
2022-08-20T07:11:29.164Z,74.89
2022-08-20T07:13:58.721Z,75.08
2022-08-20T07:16:26.635Z,74.93
2022-08-20T07:18:53.671Z,74.09
2022-08-20T07:21:20.656Z,74.15
2022-08-20T07:23:48.894Z,73.98
2022-08-20T07:26:17.061Z,73.81
2022-08-20T07:28:46.894Z,73.09
2022-08-20T07:31:35.028Z,72.44
2022-08-20T07:34:03.369Z,72.89
2022-08-20T07:36:31.196Z,72.70
2022-08-20T07:38:58.251Z,72.64
2022-08-20T07:41:25.274Z,72.58
2022-08-20T07:43:52.379Z,72.85
2022-08-20T07:46:21.459Z,73.14
2022-08-20T07:48:52.943Z,73.06
2022-08-20T07:51:22.260Z,73.08
2022-08-20T07:53:51.650Z,73.23
2022-08-20T07:56:24.209Z,73.38
2022-08-20T07:59:00.008Z,73.59
2022-08-20T08:01:31.266Z,73.27
2022-08-20T08:04:00.072Z,73.24
2022-08-20T08:06:33.789Z,73.21
2022-08-20T08:09:13.331Z,73.32
2022-08-20T08:11:57.436Z,73.75
2022-08-20T08:14:34.122Z,72.80
2022-08-20T08:17:04.886Z,72.75
2022-08-20T08:19:39.106Z,72.61
2022-08-20T08:22:12.375Z,73.48
2022-08-20T08:24:42.041Z,73.03
2022-08-20T08:27:24.121Z,74.15
2022-08-20T08:29:51.006Z,74.94
2022-08-20T08:32:17.969Z,75.25
2022-08-20T08:34:47.609Z,74.33
2022-08-20T08:37:14.479Z,73.88
2022-08-20T08:39:42.330Z,73.28
2022-08-20T08:42:42.628Z,72.32
2022-08-20T08:45:12.577Z,71.61
2022-08-20T08:47:41.191Z,70.66
2022-08-20T08:50:50.153Z,70.89
2022-08-20T08:53:26.225Z,71.54
2022-08-20T08:55:53.389Z,73.27
2022-08-20T08:58:20.330Z,78.42
2022-08-20T09:00:56.426Z,82.34
2022-08-20T09:03:36.261Z,87.46
2022-08-20T09:06:04.623Z,90.40
2022-08-20T09:08:49.797Z,92.45
2022-08-20T09:11:21.253Z,92.83
2022-08-20T09:13:52.195Z,95.46
2022-08-20T09:16:19.029Z,97.47
2022-08-20T09:18:49.906Z,99.40
2022-08-20T09:21:17.834Z,100.00
2022-08-20T09:23:45.085Z,98.67
2022-08-20T09:26:12.242Z,100.00
2022-08-20T09:28:39.262Z,100.00
2022-08-20T09:31:07.056Z,100.00
2022-08-20T09:33:34.984Z,100.00
2022-08-20T09:36:02.101Z,100.00
2022-08-20T09:38:29.103Z,100.00
2022-08-20T09:40:56.019Z,100.00
2022-08-20T09:43:29.022Z,100.00
2022-08-20T09:45:55.927Z,100.00
2022-08-20T09:48:31.934Z,100.00
2022-08-20T09:50:59.402Z,100.00
2022-08-20T09:53:26.333Z,100.00
2022-08-20T09:55:56.164Z,100.00
2022-08-20T09:58:53.167Z,100.00
2022-08-20T10:01:22.501Z,98.14
2022-08-20T10:03:51.017Z,97.39
2022-08-20T10:06:20.928Z,96.71
2022-08-20T10:08:49.864Z,93.31
2022-08-20T10:11:18.255Z,96.43
2022-08-20T10:13:45.714Z,92.69
2022-08-20T10:16:13.386Z,89.90
2022-08-20T10:18:40.683Z,88.70
2022-08-20T10:21:12.426Z,85.98
2022-08-20T10:23:39.469Z,86.49
2022-08-20T10:26:12.292Z,86.29
2022-08-20T10:28:40.109Z,85.79
2022-08-20T10:31:10.386Z,84.04
2022-08-20T10:33:38.721Z,81.02
2022-08-20T10:36:16.953Z,78.13
2022-08-20T10:38:45.365Z,75.23
2022-08-20T10:41:12.515Z,74.25
2022-08-20T10:43:39.338Z,76.23
2022-08-20T10:46:06.913Z,73.84
2022-08-20T10:48:34.044Z,74.33
2022-08-20T10:51:01.138Z,71.47
2022-08-20T10:53:28.112Z,66.26
2022-08-20T10:55:56.584Z,67.67
2022-08-20T10:58:25.161Z,66.95
2022-08-20T11:00:53.136Z,65.85
2022-08-20T11:03:23.450Z,66.31
2022-08-20T11:05:50.351Z,65.67
2022-08-20T11:08:28.630Z,65.43
2022-08-20T11:11:01.740Z,63.90
2022-08-20T11:13:31.300Z,63.72
2022-08-20T11:15:58.334Z,64.45
2022-08-20T11:18:25.194Z,65.72
2022-08-20T11:20:52.863Z,67.12
2022-08-20T11:23:19.905Z,65.30
2022-08-20T11:25:48.338Z,64.42
2022-08-20T11:28:16.338Z,66.23
2022-08-20T11:30:58.263Z,67.19
2022-08-20T11:33:25.118Z,67.56
2022-08-20T11:35:52.054Z,67.81
2022-08-20T11:38:19.650Z,68.32
2022-08-20T11:40:46.957Z,66.80
2022-08-20T11:43:16.347Z,66.26
2022-08-20T11:45:52.801Z,66.29
2022-08-20T11:48:20.151Z,64.88
2022-08-20T11:50:48.416Z,65.45
2022-08-20T11:53:15.304Z,65.06
2022-08-20T11:55:45.759Z,64.76
2022-08-20T11:58:12.885Z,64.07
2022-08-20T12:00:40.438Z,64.01
2022-08-20T12:03:09.733Z,63.65
2022-08-20T12:05:42.324Z,64.45
2022-08-20T12:08:10.065Z,65.41
2022-08-20T12:10:38.678Z,65.73
2022-08-20T12:13:07.572Z,65.85
2022-08-20T12:15:36.665Z,66.05
2022-08-20T12:18:08.352Z,65.51
2022-08-20T12:20:39.036Z,65.19
2022-08-20T12:23:05.955Z,64.05
2022-08-20T12:25:33.927Z,63.28
2022-08-20T12:28:00.872Z,60.42
2022-08-20T12:30:27.886Z,58.61
2022-08-20T12:32:54.779Z,58.02
2022-08-20T12:35:22.090Z,56.10
2022-08-20T12:37:49.280Z,53.38
2022-08-20T12:40:32.025Z,52.88
2022-08-20T12:43:02.982Z,53.39
2022-08-20T12:45:30.797Z,53.66
2022-08-20T12:48:15.980Z,52.15
2022-08-20T12:50:45.697Z,52.08
2022-08-20T12:53:12.979Z,49.41
2022-08-20T12:55:40.730Z,46.62
2022-08-20T12:58:10.821Z,46.45
2022-08-20T13:00:50.335Z,45.31
2022-08-20T13:03:20.575Z,42.84
2022-08-20T13:05:49.396Z,41.63
2022-08-20T13:08:19.103Z,41.06
2022-08-20T13:10:48.145Z,38.16
2022-08-20T13:13:20.525Z,38.80
2022-08-20T13:15:50.679Z,36.66
2022-08-20T13:18:18.603Z,36.52
2022-08-20T13:20:46.072Z,37.73
2022-08-20T13:23:13.153Z,37.74
2022-08-20T13:25:40.229Z,36.80
2022-08-20T13:28:07.149Z,35.97
2022-08-20T13:30:38.593Z,35.37
2022-08-20T13:33:05.514Z,34.46
2022-08-20T13:35:32.838Z,35.79
2022-08-20T13:37:59.762Z,36.39
2022-08-20T13:40:26.890Z,35.47
2022-08-20T13:42:53.929Z,34.58
2022-08-20T13:45:21.591Z,33.92
2022-08-20T13:47:54.642Z,32.16
2022-08-20T13:50:25.502Z,31.44
2022-08-20T13:52:53.024Z,32.68
2022-08-20T13:55:23.270Z,33.96
2022-08-20T13:57:51.377Z,32.77
2022-08-20T14:00:31.387Z,32.46
2022-08-20T14:03:04.822Z,30.95
2022-08-20T14:05:33.148Z,31.49
2022-08-20T14:08:17.131Z,30.67
2022-08-20T14:10:45.197Z,29.88
2022-08-20T14:13:15.810Z,30.38
2022-08-20T14:15:44.177Z,31.55
2022-08-20T14:18:11.860Z,30.56
2022-08-20T14:20:39.014Z,29.99
2022-08-20T14:23:06.272Z,29.94
2022-08-20T14:25:34.629Z,29.88
2022-08-20T14:28:18.288Z,30.97
2022-08-20T14:30:52.953Z,32.14
2022-08-20T14:33:22.546Z,31.75
2022-08-20T14:35:49.665Z,31.10
2022-08-20T14:38:16.514Z,31.42
2022-08-20T14:40:43.328Z,32.25
2022-08-20T14:43:10.240Z,31.23
2022-08-20T14:45:37.179Z,32.20
2022-08-20T14:48:09.223Z,32.77
2022-08-20T14:50:36.440Z,32.73
2022-08-20T14:53:04.472Z,32.27
2022-08-20T14:55:37.437Z,32.93
2022-08-20T14:58:13.211Z,32.29
2022-08-20T15:00:40.826Z,33.68
2022-08-20T15:03:07.905Z,31.76
2022-08-20T15:05:39.510Z,31.54
2022-08-20T15:08:10.590Z,32.04
2022-08-20T15:10:39.541Z,32.76
2022-08-20T15:13:06.836Z,31.74
2022-08-20T15:15:33.898Z,31.75
2022-08-20T15:18:01.202Z,31.83
2022-08-20T15:20:33.385Z,32.82
2022-08-20T15:23:01.111Z,33.84
2022-08-20T15:25:36.893Z,34.77
2022-08-20T15:28:09.811Z,35.79
2022-08-20T15:30:40.934Z,36.22
2022-08-20T15:33:10.533Z,36.93
2022-08-20T15:35:38.004Z,36.12
2022-08-20T15:38:05.064Z,36.78
2022-08-20T15:40:33.391Z,37.47
2022-08-20T15:43:03.242Z,37.36
2022-08-20T15:45:31.901Z,36.91
2022-08-20T15:48:20.179Z,37.11
2022-08-20T15:51:15.138Z,36.92
2022-08-20T15:53:53.851Z,37.24
2022-08-20T15:57:20.413Z,37.44
2022-08-20T16:00:20.670Z,36.32
2022-08-20T16:03:55.248Z,36.27
2022-08-20T16:06:31.983Z,36.27
2022-08-20T16:09:26.102Z,36.52
2022-08-20T16:12:16.570Z,36.11
2022-08-20T16:14:48.748Z,36.24
2022-08-20T16:17:23.690Z,36.35
2022-08-20T16:20:08.163Z,36.16
2022-08-20T16:22:43.268Z,35.97
2022-08-20T16:25:13.518Z,35.85
2022-08-20T16:28:40.860Z,36.62
2022-08-20T16:31:14.546Z,36.01
2022-08-20T16:34:33.440Z,34.95
2022-08-20T16:37:41.339Z,33.93
2022-08-20T16:40:44.550Z,34.23
2022-08-20T16:43:33.866Z,33.94
2022-08-20T16:46:12.217Z,34.32
2022-08-20T16:48:50.619Z,34.87
2022-08-20T16:51:25.809Z,35.33
2022-08-20T16:53:52.630Z,35.76
2022-08-20T16:56:47.869Z,36.69
2022-08-20T16:59:27.214Z,36.80
2022-08-20T17:02:08.300Z,36.35
2022-08-20T17:04:59.326Z,35.90
2022-08-20T17:07:43.540Z,35.76
2022-08-20T17:10:27.184Z,36.03
2022-08-20T17:13:19.129Z,36.11
2022-08-20T17:15:56.359Z,36.22
2022-08-20T17:18:47.009Z,36.44
2022-08-20T17:21:38.105Z,36.46
2022-08-20T17:24:30.213Z,36.60
2022-08-20T17:27:14.767Z,35.45
2022-08-20T17:29:53.270Z,35.55
2022-08-20T17:32:28.847Z,35.54
2022-08-20T17:35:00.158Z,35.38
2022-08-20T17:37:36.221Z,35.50
2022-08-20T17:40:24.430Z,35.70
2022-08-20T17:43:03.057Z,36.31
2022-08-20T17:45:43.835Z,36.13
2022-08-20T17:48:38.813Z,36.52
2022-08-20T17:51:15.133Z,36.48
2022-08-20T17:53:52.217Z,36.56
2022-08-20T17:56:31.510Z,36.43
2022-08-20T17:59:47.715Z,36.53
2022-08-20T18:02:17.297Z,36.51
2022-08-20T18:04:47.152Z,36.80
2022-08-20T18:07:24.373Z,36.64
2022-08-20T18:10:05.223Z,36.79
2022-08-20T18:12:56.451Z,36.96
2022-08-20T18:15:31.187Z,36.97
2022-08-20T18:18:26.013Z,37.04
2022-08-20T18:21:06.425Z,37.30
2022-08-20T18:24:14.793Z,37.26
2022-08-20T18:27:15.276Z,38.10
2022-08-20T18:29:46.664Z,39.72
2022-08-20T18:32:38.252Z,41.27
2022-08-20T18:35:33.696Z,42.35
2022-08-20T18:38:21.834Z,43.14
2022-08-20T18:40:53.224Z,43.72
2022-08-20T18:43:30.460Z,44.38
2022-08-20T18:46:12.097Z,44.35
2022-08-20T18:48:53.837Z,44.63
2022-08-20T18:51:42.453Z,44.99
2022-08-20T18:54:32.970Z,45.28
2022-08-20T18:57:20.569Z,45.33
2022-08-20T18:59:59.950Z,46.11
2022-08-20T19:02:33.275Z,46.14
2022-08-20T19:05:12.196Z,46.61
2022-08-20T19:07:51.197Z,47.11
2022-08-20T19:10:43.472Z,47.22
2022-08-20T19:13:50.979Z,47.51
2022-08-20T19:16:42.235Z,47.97
2022-08-20T19:19:27.524Z,48.29
2022-08-20T19:21:57.224Z,48.45
2022-08-20T19:24:31.452Z,48.91
2022-08-20T19:27:04.710Z,49.47
2022-08-20T19:29:40.149Z,49.51
2022-08-20T19:32:17.969Z,50.19
2022-08-20T19:35:02.489Z,49.95
2022-08-20T19:37:44.445Z,49.95
2022-08-20T19:40:39.329Z,50.54
2022-08-20T19:43:15.839Z,51.23
2022-08-20T19:45:54.268Z,52.13
2022-08-20T19:48:54.809Z,52.21
2022-08-20T19:51:47.947Z,52.16
2022-08-20T19:54:22.106Z,52.76
2022-08-20T19:56:49.149Z,53.28
2022-08-20T19:59:22.634Z,53.98
2022-08-20T20:02:02.928Z,54.27
2022-08-20T20:04:54.936Z,54.53
2022-08-20T20:07:48.146Z,54.70
2022-08-20T20:10:35.620Z,53.84
2022-08-20T20:13:18.071Z,53.33
2022-08-20T20:15:46.121Z,52.95
2022-08-20T20:18:14.116Z,52.49
2022-08-20T20:20:57.466Z,52.60
2022-08-20T20:23:45.673Z,52.85
2022-08-20T20:26:20.149Z,52.68
2022-08-20T20:28:53.488Z,52.71
2022-08-20T20:31:36.579Z,52.53
2022-08-20T20:34:14.689Z,53.04
2022-08-20T20:36:46.379Z,53.15
2022-08-20T20:39:39.916Z,54.34
2022-08-20T20:42:32.818Z,55.14
2022-08-20T20:45:00.215Z,55.27
2022-08-20T20:47:32.332Z,55.30
2022-08-20T20:50:05.193Z,55.93
2022-08-20T20:52:36.264Z,56.13
2022-08-20T20:55:12.385Z,56.35
2022-08-20T20:57:39.449Z,56.70
2022-08-20T21:00:14.830Z,57.00
2022-08-20T21:02:43.292Z,57.51
2022-08-20T21:05:12.620Z,57.31
2022-08-20T21:07:51.822Z,57.15
2022-08-20T21:10:23.058Z,57.15
2022-08-20T21:12:52.998Z,56.98
2022-08-20T21:15:23.143Z,56.83
2022-08-20T21:17:50.536Z,56.85
2022-08-20T21:20:18.380Z,56.63
2022-08-20T21:22:45.378Z,56.62
2022-08-20T21:25:13.077Z,56.73
2022-08-20T21:27:47.044Z,56.93
2022-08-20T21:30:16.365Z,57.35
2022-08-20T21:32:43.338Z,57.41
2022-08-20T21:35:11.379Z,57.33
2022-08-20T21:37:38.740Z,56.95
2022-08-20T21:40:10.075Z,57.24
2022-08-20T21:42:39.690Z,57.54
2022-08-20T21:45:11.491Z,58.10
2022-08-20T21:47:38.305Z,58.63
2022-08-20T21:50:07.888Z,58.46
2022-08-20T21:52:35.843Z,58.51
2022-08-20T21:55:02.674Z,58.15
2022-08-20T21:57:33.242Z,58.33
2022-08-20T22:00:02.366Z,58.33
2022-08-20T22:02:30.444Z,58.40
2022-08-20T22:04:57.310Z,58.51
2022-08-20T22:07:24.198Z,59.10
2022-08-20T22:09:51.078Z,59.38
2022-08-20T22:12:24.030Z,60.23
2022-08-20T22:14:51.165Z,60.54
2022-08-20T22:17:19.103Z,61.46
2022-08-20T22:19:46.005Z,61.24
2022-08-20T22:22:15.572Z,61.00
2022-08-20T22:24:42.492Z,61.56
2022-08-20T22:27:09.404Z,61.25
2022-08-20T22:29:36.351Z,61.01
2022-08-20T22:32:04.039Z,61.12
2022-08-20T22:34:36.157Z,61.51
2022-08-20T22:37:03.859Z,61.40
2022-08-20T22:39:30.888Z,61.58
2022-08-20T22:41:57.749Z,62.11
2022-08-20T22:44:24.592Z,62.40
2022-08-20T22:46:58.992Z,62.02
2022-08-20T22:49:31.796Z,62.35
2022-08-20T22:51:58.901Z,62.11
2022-08-20T22:54:26.724Z,62.38
2022-08-20T22:56:54.921Z,62.32
2022-08-20T22:59:25.314Z,62.63
2022-08-20T23:01:53.261Z,61.90
2022-08-20T23:04:26.512Z,62.40
2022-08-20T23:06:55.090Z,62.52
2022-08-20T23:09:22.579Z,61.78
2022-08-20T23:11:50.167Z,61.30
2022-08-20T23:14:17.552Z,61.55
2022-08-20T23:16:49.045Z,61.37
2022-08-20T23:19:22.330Z,61.17
2022-08-20T23:21:51.255Z,61.77
2022-08-20T23:24:18.893Z,61.95
2022-08-20T23:26:52.774Z,62.54
2022-08-20T23:29:22.566Z,63.29
2022-08-20T23:31:56.795Z,63.55
2022-08-20T23:34:25.324Z,63.63
2022-08-20T23:36:53.950Z,63.66
2022-08-20T23:39:21.309Z,63.46
2022-08-20T23:41:48.432Z,63.83
2022-08-20T23:44:26.244Z,65.01
2022-08-20T23:47:01.923Z,64.75
2022-08-20T23:49:33.138Z,64.68
2022-08-20T23:52:00.974Z,64.22
2022-08-20T23:54:30.469Z,64.39
2022-08-20T23:56:57.661Z,65.24
2022-08-20T23:59:25.587Z,65.49
